createdAt,value
2018-05-07T00:00:34.658Z,99000.43
2018-05-07T00:03:02.028Z,99000.38
2018-05-07T00:05:29.627Z,98997.98
2018-05-07T00:07:57.009Z,98996.45
2018-05-07T00:10:24.408Z,98995.26
2018-05-07T00:12:51.789Z,98995.84
2018-05-07T00:15:19.167Z,98991.08
2018-05-07T00:17:46.572Z,98996.45
2018-05-07T00:20:13.966Z,98988.43
2018-05-07T00:22:41.356Z,98991.30
2018-05-07T00:25:08.748Z,98990.37
2018-05-07T00:27:36.150Z,98996.01
2018-05-07T00:30:03.548Z,98991.50
2018-05-07T00:32:30.940Z,98994.06
2018-05-07T00:34:58.963Z,98992.80
2018-05-07T00:37:27.181Z,98989.70
2018-05-07T00:39:54.573Z,99000.94
2018-05-07T00:42:21.948Z,98996.17
2018-05-07T00:44:49.345Z,98997.19
2018-05-07T00:47:16.741Z,98997.28
2018-05-07T00:49:44.185Z,99003.67
2018-05-07T00:52:12.387Z,99006.06
2018-05-07T00:54:51.552Z,99008.45
2018-05-07T00:57:18.960Z,99007.32
2018-05-07T00:59:46.343Z,98997.48
2018-05-07T01:02:13.745Z,99001.26
2018-05-07T01:04:41.135Z,99002.47
2018-05-07T01:07:08.529Z,98996.39
2018-05-07T01:09:35.916Z,99003.30
2018-05-07T01:12:03.301Z,98997.98
2018-05-07T01:14:30.672Z,98998.46
2018-05-07T01:16:58.078Z,99002.70
2018-05-07T01:19:25.451Z,98997.61
2018-05-07T01:21:52.836Z,98998.68
2018-05-07T01:24:20.228Z,99003.66
2018-05-07T01:26:47.633Z,98998.03
2018-05-07T01:29:15.013Z,99002.67
2018-05-07T01:31:42.412Z,99003.21
2018-05-07T01:34:09.805Z,99002.96
2018-05-07T01:36:37.189Z,99002.83
2018-05-07T01:39:04.871Z,99001.48
2018-05-07T01:41:32.918Z,98996.92
2018-05-07T01:44:00.298Z,98995.51
2018-05-07T01:46:27.685Z,98997.08
2018-05-07T01:48:55.065Z,98996.14
2018-05-07T01:51:23.224Z,98996.27
2018-05-07T01:53:50.619Z,98997.78
2018-05-07T01:56:18.021Z,98995.59
2018-05-07T01:58:45.412Z,98992.47
2018-05-07T02:01:12.792Z,98993.73
2018-05-07T02:03:40.192Z,98988.60
2018-05-07T02:06:07.576Z,98985.02
2018-05-07T02:08:34.964Z,98983.03
2018-05-07T02:11:02.352Z,98980.48
2018-05-07T02:13:29.743Z,98983.10
2018-05-07T02:15:57.120Z,98979.09
2018-05-07T02:18:24.524Z,98982.07
2018-05-07T02:20:51.916Z,98977.67
2018-05-07T02:23:19.304Z,98973.47
2018-05-07T02:25:46.691Z,98973.36
2018-05-07T02:28:14.082Z,98975.53
2018-05-07T02:30:41.465Z,98971.78
2018-05-07T02:33:08.863Z,98968.29
2018-05-07T02:35:36.267Z,98972.48
2018-05-07T02:38:03.634Z,98975.18
2018-05-07T02:40:31.020Z,98970.00
2018-05-07T02:42:58.426Z,98968.97
2018-05-07T02:45:25.799Z,98965.45
2018-05-07T02:47:53.215Z,98961.59
2018-05-07T02:50:20.590Z,98965.16
2018-05-07T02:52:47.986Z,98962.76
2018-05-07T02:55:15.381Z,98964.86
2018-05-07T02:57:42.765Z,98964.07
2018-05-07T03:00:10.160Z,98966.64
2018-05-07T03:02:37.551Z,98959.31
2018-05-07T03:05:04.930Z,98964.95
2018-05-07T03:07:32.332Z,98962.42
2018-05-07T03:09:59.722Z,98962.08
2018-05-07T03:12:27.124Z,98959.38
2018-05-07T03:14:54.525Z,98958.59
2018-05-07T03:17:21.909Z,98966.34
2018-05-07T03:19:49.311Z,98965.95
2018-05-07T03:22:16.691Z,98969.09
2018-05-07T03:24:44.111Z,98965.37
2018-05-07T03:27:11.484Z,98972.73
2018-05-07T03:29:38.869Z,98975.96
2018-05-07T03:32:06.250Z,98969.52
2018-05-07T03:34:33.634Z,98968.59
2018-05-07T03:37:01.026Z,98971.14
2018-05-07T03:39:28.418Z,98971.37
2018-05-07T03:41:55.802Z,98968.23
2018-05-07T03:44:23.195Z,98969.48
2018-05-07T03:46:50.589Z,98971.59
2018-05-07T03:49:17.976Z,98957.37
2018-05-07T03:51:45.363Z,98959.80
2018-05-07T03:54:12.754Z,98966.62
2018-05-07T03:56:40.131Z,98967.06
2018-05-07T03:59:07.548Z,98967.50
2018-05-07T04:01:34.924Z,98963.30
2018-05-07T04:04:02.330Z,98961.80
2018-05-07T04:06:29.724Z,98955.59
2018-05-07T04:08:57.162Z,98951.95
2018-05-07T04:11:24.555Z,98948.45
2018-05-07T04:13:51.956Z,98948.39
2018-05-07T04:16:31.158Z,98946.03
2018-05-07T04:19:10.356Z,98944.58
2018-05-07T04:21:37.744Z,98958.16
2018-05-07T04:24:05.673Z,98950.78
2018-05-07T04:26:33.056Z,98958.70
2018-05-07T04:29:00.454Z,98961.25
2018-05-07T04:31:27.835Z,98946.86
2018-05-07T04:33:55.229Z,98955.87
2018-05-07T04:36:22.633Z,98959.89
2018-05-07T04:38:50.024Z,98957.98
2018-05-07T04:41:17.416Z,98953.18
2018-05-07T04:43:44.806Z,98947.48
2018-05-07T04:46:12.192Z,98954.78
2018-05-07T04:48:39.583Z,98955.91
2018-05-07T04:51:06.976Z,98953.08
2018-05-07T04:53:34.360Z,98960.24
2018-05-07T04:56:01.765Z,98960.02
2018-05-07T04:58:29.158Z,98960.09
2018-05-07T05:00:56.551Z,98964.11
2018-05-07T05:03:23.938Z,98968.95
2018-05-07T05:05:51.327Z,98973.93
2018-05-07T05:08:18.712Z,98972.03
2018-05-07T05:10:46.106Z,98978.12
2018-05-07T05:13:13.815Z,98979.30
2018-05-07T05:15:41.212Z,98981.23
2018-05-07T05:18:08.600Z,98977.39
2018-05-07T05:20:36.006Z,98987.81
2018-05-07T05:23:03.385Z,98980.00
2018-05-07T05:25:30.780Z,98980.75
2018-05-07T05:27:58.165Z,98976.84
2018-05-07T05:30:25.554Z,98980.01
2018-05-07T05:32:52.943Z,98976.03
2018-05-07T05:35:20.345Z,98972.81
2018-05-07T05:37:47.726Z,98975.64
2018-05-07T05:40:15.127Z,98967.69
2018-05-07T05:42:42.511Z,98964.50
2018-05-07T05:45:09.902Z,98960.38
2018-05-07T05:47:37.289Z,98955.05
2018-05-07T05:50:04.818Z,98962.55
2018-05-07T05:52:32.086Z,98965.55
2018-05-07T05:54:59.477Z,98953.27
2018-05-07T05:57:26.848Z,98959.42
2018-05-07T05:59:54.248Z,98954.34
2018-05-07T06:02:21.649Z,98957.30
2018-05-07T06:04:49.021Z,98956.64
2018-05-07T06:07:16.430Z,98960.05
2018-05-07T06:09:43.795Z,98957.63
2018-05-07T06:12:11.193Z,98960.05
2018-05-07T06:14:38.644Z,98954.03
2018-05-07T06:17:05.956Z,98962.34
2018-05-07T06:19:33.350Z,98962.16
2018-05-07T06:22:00.737Z,98958.86
2018-05-07T06:24:28.126Z,98957.81
2018-05-07T06:26:55.526Z,98968.30
2018-05-07T06:29:22.901Z,98973.30
2018-05-07T06:31:50.304Z,98968.75
2018-05-07T06:34:17.707Z,98977.45
2018-05-07T06:36:45.096Z,98971.87
2018-05-07T06:39:12.481Z,98972.67
2018-05-07T06:41:39.868Z,98974.24
2018-05-07T06:44:07.248Z,98968.80
2018-05-07T06:46:34.651Z,98968.91
2018-05-07T06:49:02.041Z,98970.53
2018-05-07T06:51:29.426Z,98967.14
2018-05-07T06:53:56.813Z,98966.09
2018-05-07T06:56:24.201Z,98964.48
2018-05-07T06:58:51.583Z,98971.30
2018-05-07T07:01:18.987Z,98960.86
2018-05-07T07:03:46.376Z,98963.17
2018-05-07T07:06:13.775Z,98963.31
2018-05-07T07:08:42.361Z,98958.05
2018-05-07T07:11:09.691Z,98956.55
2018-05-07T07:13:37.080Z,98954.23
2018-05-07T07:16:04.481Z,98962.53
2018-05-07T07:18:31.852Z,98958.08
2018-05-07T07:20:59.252Z,98951.98
2018-05-07T07:23:26.635Z,98959.05
2018-05-07T07:25:54.029Z,98956.00
2018-05-07T07:28:21.417Z,98961.14
2018-05-07T07:30:48.826Z,98952.58
2018-05-07T07:33:16.208Z,98958.52
2018-05-07T07:35:43.601Z,98954.48
2018-05-07T07:38:10.995Z,98959.28
2018-05-07T07:40:38.377Z,98965.20
2018-05-07T07:43:05.769Z,98955.77
2018-05-07T07:45:33.158Z,98955.43
2018-05-07T07:48:00.561Z,98954.16
2018-05-07T07:50:27.938Z,98953.31
2018-05-07T07:52:55.903Z,98947.94
2018-05-07T07:55:23.292Z,98948.55
2018-05-07T07:57:50.680Z,98945.39
2018-05-07T08:00:18.948Z,98944.28
2018-05-07T08:02:46.336Z,98952.00
2018-05-07T08:05:13.727Z,98942.28
2018-05-07T08:07:41.133Z,98948.92
2018-05-07T08:10:08.524Z,98941.77
2018-05-07T08:12:35.917Z,98944.43
2018-05-07T08:15:04.077Z,98937.00
2018-05-07T08:17:31.482Z,98941.70
2018-05-07T08:19:58.864Z,98940.69
2018-05-07T08:22:26.263Z,98943.31
2018-05-07T08:24:53.648Z,98931.63
2018-05-07T08:27:21.032Z,98936.32
2018-05-07T08:29:48.422Z,98929.08
2018-05-07T08:32:15.828Z,98934.13
2018-05-07T08:34:43.218Z,98929.56
2018-05-07T08:37:10.599Z,98918.81
2018-05-07T08:39:37.979Z,98919.78
2018-05-07T08:42:05.372Z,98916.97
2018-05-07T08:44:32.760Z,98922.19
2018-05-07T08:47:01.789Z,98911.86
2018-05-07T08:49:29.190Z,98911.86
2018-05-07T08:51:56.584Z,98909.06
2018-05-07T08:54:23.971Z,98907.23
2018-05-07T08:56:51.365Z,98906.23
2018-05-07T08:59:18.741Z,98899.11
2018-05-07T09:01:47.141Z,98897.59
2018-05-07T09:04:14.406Z,98902.63
2018-05-07T09:06:41.780Z,98900.52
2018-05-07T09:09:09.255Z,98896.58
2018-05-07T09:11:36.573Z,98886.39
2018-05-07T09:14:03.968Z,98890.17
2018-05-07T09:16:31.348Z,98892.16
2018-05-07T09:18:58.740Z,98885.84
2018-05-07T09:21:26.122Z,98881.90
2018-05-07T09:23:53.529Z,98883.69
2018-05-07T09:26:21.364Z,98885.05
2018-05-07T09:28:49.180Z,98882.41
2018-05-07T09:31:16.559Z,98882.81
2018-05-07T09:33:43.955Z,98872.78
2018-05-07T09:36:11.595Z,98875.33
2018-05-07T09:38:39.000Z,98875.43
2018-05-07T09:41:06.392Z,98869.15
2018-05-07T09:43:33.784Z,98856.24
2018-05-07T09:46:01.424Z,98866.10
2018-05-07T09:48:28.818Z,98857.95
2018-05-07T09:50:56.199Z,98856.11
2018-05-07T09:53:23.600Z,98859.84
2018-05-07T09:55:50.988Z,98860.76
2018-05-07T09:58:18.376Z,98852.38
2018-05-07T10:00:45.772Z,98847.80
2018-05-07T10:03:13.169Z,98847.63
2018-05-07T10:05:40.555Z,98841.48
2018-05-07T10:08:07.943Z,98854.42
2018-05-07T10:10:35.328Z,98841.97
2018-05-07T10:13:02.737Z,98833.33
2018-05-07T10:15:30.115Z,98840.22
2018-05-07T10:17:57.507Z,98833.73
2018-05-07T10:20:24.896Z,98832.30
2018-05-07T10:22:53.259Z,98820.00
2018-05-07T10:25:20.654Z,98825.86
2018-05-07T10:27:48.063Z,98828.18
2018-05-07T10:30:15.449Z,98821.28
2018-05-07T10:32:42.838Z,98808.44
2018-05-07T10:35:10.233Z,98803.23
2018-05-07T10:37:37.619Z,98805.95
2018-05-07T10:40:05.007Z,98801.72
2018-05-07T10:42:32.400Z,98796.94
2018-05-07T10:44:59.788Z,98793.55
2018-05-07T10:47:27.184Z,98794.00
2018-05-07T10:49:54.587Z,98794.04
2018-05-07T10:52:22.788Z,98790.52
2018-05-07T10:54:51.104Z,98781.66
2018-05-07T10:57:18.494Z,98777.75
2018-05-07T10:59:46.682Z,98777.91
2018-05-07T11:02:14.063Z,98772.87
2018-05-07T11:04:41.452Z,98764.52
2018-05-07T11:07:08.871Z,98765.27
2018-05-07T11:09:36.240Z,98761.22
2018-05-07T11:12:03.623Z,98747.20
2018-05-07T11:14:31.005Z,98750.13
2018-05-07T11:16:58.393Z,98754.56
2018-05-07T11:19:25.799Z,98750.72
2018-05-07T11:21:53.172Z,98754.21
2018-05-07T11:24:20.578Z,98754.22
2018-05-07T11:26:47.963Z,98744.09
2018-05-07T11:29:15.357Z,98739.59
2018-05-07T11:31:42.742Z,98735.77
2018-05-07T11:34:10.136Z,98731.52
2018-05-07T11:36:37.524Z,98726.31
2018-05-07T11:39:05.485Z,98735.03
2018-05-07T11:41:32.851Z,98730.30
2018-05-07T11:44:00.266Z,98724.47
2018-05-07T11:46:27.643Z,98729.83
2018-05-07T11:48:55.706Z,98728.33
2018-05-07T11:51:23.097Z,98727.61
2018-05-07T11:53:50.487Z,98716.20
2018-05-07T11:56:17.875Z,98722.59
2018-05-07T11:58:45.268Z,98726.39
2018-05-07T12:01:12.649Z,98724.55
2018-05-07T12:03:40.028Z,98712.02
2018-05-07T12:06:07.420Z,98715.91
2018-05-07T12:08:35.615Z,98706.48
2018-05-07T12:11:03.008Z,98707.05
2018-05-07T12:13:30.404Z,98701.90
2018-05-07T12:15:57.818Z,98701.91
2018-05-07T12:18:25.186Z,98700.91
2018-05-07T12:20:52.580Z,98691.88
2018-05-07T12:23:20.047Z,98695.50
2018-05-07T12:25:47.354Z,98698.41
2018-05-07T12:28:14.732Z,98690.03
2018-05-07T12:30:42.145Z,98688.02
2018-05-07T12:33:09.526Z,98695.63
2018-05-07T12:35:36.920Z,98689.55
2018-05-07T12:38:04.312Z,98684.91
2018-05-07T12:40:31.696Z,98681.39
2018-05-07T12:42:59.076Z,98677.63
2018-05-07T12:45:26.476Z,98666.59
2018-05-07T12:47:53.863Z,98673.25
2018-05-07T12:50:21.481Z,98670.61
2018-05-07T12:52:48.880Z,98671.73
2018-05-07T12:55:16.272Z,98661.50
2018-05-07T12:57:43.660Z,98653.38
2018-05-07T13:00:11.053Z,98658.92
2018-05-07T13:02:38.439Z,98661.84
2018-05-07T13:05:05.831Z,98653.36
2018-05-07T13:07:33.218Z,98649.07
2018-05-07T13:10:00.645Z,98643.91
2018-05-07T13:12:28.568Z,98638.27
2018-05-07T13:14:55.926Z,98637.48
2018-05-07T13:17:23.311Z,98636.31
2018-05-07T13:19:50.714Z,98633.82
2018-05-07T13:22:18.105Z,98634.45
2018-05-07T13:24:45.538Z,98624.23
2018-05-07T13:27:12.896Z,98620.32
2018-05-07T13:29:40.303Z,98617.83
2018-05-07T13:32:07.683Z,98612.71
2018-05-07T13:34:35.072Z,98617.28
2018-05-07T13:37:02.477Z,98608.73
2018-05-07T13:39:29.868Z,98603.95
2018-05-07T13:41:57.256Z,98598.20
2018-05-07T13:44:24.660Z,98594.90
2018-05-07T13:46:52.040Z,98591.48
2018-05-07T13:49:19.436Z,98593.61
2018-05-07T13:51:46.824Z,98590.95
2018-05-07T13:54:14.205Z,98593.41
2018-05-07T13:56:41.596Z,98585.64
2018-05-07T13:59:08.986Z,98584.39
2018-05-07T14:01:36.376Z,98569.83
2018-05-07T14:04:03.777Z,98578.13
2018-05-07T14:06:31.221Z,98574.24
2018-05-07T14:08:58.596Z,98574.70
2018-05-07T14:11:25.980Z,98559.94
2018-05-07T14:13:53.369Z,98565.75
2018-05-07T14:16:20.769Z,98559.33
2018-05-07T14:18:48.153Z,98562.69
2018-05-07T14:21:15.775Z,98556.52
2018-05-07T14:23:43.170Z,98554.09
2018-05-07T14:26:11.336Z,98550.39
2018-05-07T14:28:38.635Z,98549.62
2018-05-07T14:31:06.049Z,98539.02
2018-05-07T14:33:33.450Z,98540.02
2018-05-07T14:36:01.734Z,98532.37
2018-05-07T14:38:29.113Z,98535.80
2018-05-07T14:40:56.521Z,98533.02
2018-05-07T14:43:23.908Z,98525.38
2018-05-07T14:45:51.310Z,98529.66
2018-05-07T14:48:18.692Z,98527.25
2018-05-07T14:50:46.089Z,98523.50
2018-05-07T14:53:13.488Z,98527.24
2018-05-07T14:55:40.877Z,98527.03
2018-05-07T14:58:08.870Z,98519.95
2018-05-07T15:00:36.294Z,98526.02
2018-05-07T15:03:03.652Z,98520.92
2018-05-07T15:05:31.108Z,98522.84
2018-05-07T15:07:58.434Z,98520.72
2018-05-07T15:10:26.272Z,98522.06
2018-05-07T15:12:53.674Z,98513.41
2018-05-07T15:15:21.056Z,98513.52
2018-05-07T15:17:48.473Z,98514.27
2018-05-07T15:20:15.860Z,98510.41
2018-05-07T15:22:44.140Z,98507.86
2018-05-07T15:25:11.532Z,98506.89
2018-05-07T15:27:38.919Z,98508.65
2018-05-07T15:30:06.299Z,98504.66
2018-05-07T15:32:34.077Z,98504.19
2018-05-07T15:35:01.467Z,98502.25
2018-05-07T15:37:28.856Z,98494.22
2018-05-07T15:39:56.239Z,98490.34
2018-05-07T15:42:23.636Z,98481.92
2018-05-07T15:44:51.024Z,98485.17
2018-05-07T15:47:18.416Z,98481.80
2018-05-07T15:49:45.805Z,98481.11
2018-05-07T15:52:13.215Z,98474.36
2018-05-07T15:54:40.597Z,98470.86
2018-05-07T15:57:07.996Z,98470.08
2018-05-07T15:59:35.380Z,98467.03
2018-05-07T16:02:02.779Z,98471.16
2018-05-07T16:04:30.172Z,98466.92
2018-05-07T16:06:57.561Z,98466.12
2018-05-07T16:09:24.948Z,98456.15
2018-05-07T16:11:52.344Z,98457.39
2018-05-07T16:14:19.734Z,98465.77
2018-05-07T16:16:47.126Z,98458.07
2018-05-07T16:19:14.530Z,98462.89
2018-05-07T16:21:41.931Z,98456.78
2018-05-07T16:24:09.291Z,98462.80
2018-05-07T16:26:37.626Z,98465.28
2018-05-07T16:29:04.930Z,98462.24
2018-05-07T16:31:32.333Z,98456.13
2018-05-07T16:33:59.704Z,98452.64
2018-05-07T16:36:27.094Z,98449.70
2018-05-07T16:38:54.500Z,98455.19
2018-05-07T16:41:21.908Z,98451.99
2018-05-07T16:43:49.301Z,98456.73
2018-05-07T16:46:16.677Z,98459.78
2018-05-07T16:48:44.335Z,98454.41
2018-05-07T16:51:13.252Z,98453.05
2018-05-07T16:53:41.103Z,98452.45
2018-05-07T16:56:08.484Z,98464.51
2018-05-07T16:58:35.878Z,98461.45
2018-05-07T17:01:03.258Z,98459.52
2018-05-07T17:03:30.651Z,98459.22
2018-05-07T17:05:58.042Z,98461.87
2018-05-07T17:08:25.480Z,98466.09
2018-05-07T17:10:52.810Z,98462.07
2018-05-07T17:13:20.217Z,98461.00
2018-05-07T17:15:47.993Z,98458.77
2018-05-07T17:18:15.385Z,98465.78
2018-05-07T17:20:42.773Z,98468.77
2018-05-07T17:23:10.166Z,98468.81
2018-05-07T17:25:37.554Z,98465.33
2018-05-07T17:28:04.940Z,98469.39
2018-05-07T17:30:32.331Z,98466.83
2018-05-07T17:32:59.733Z,98470.46
2018-05-07T17:35:27.131Z,98465.02
2018-05-07T17:37:54.516Z,98466.16
2018-05-07T17:40:22.079Z,98465.80
2018-05-07T17:42:49.610Z,98468.88
2018-05-07T17:45:28.532Z,98470.67
2018-05-07T17:48:07.820Z,98472.56
2018-05-07T17:50:35.178Z,98471.69
2018-05-07T17:53:03.429Z,98470.03
2018-05-07T17:55:30.804Z,98471.80
2018-05-07T17:57:58.209Z,98475.83
2018-05-07T18:00:25.643Z,98470.88
2018-05-07T18:02:53.050Z,98478.52
2018-05-07T18:05:20.426Z,98477.48
2018-05-07T18:07:48.048Z,98473.16
2018-05-07T18:10:16.534Z,98477.78
2018-05-07T18:12:44.435Z,98471.91
2018-05-07T18:15:11.848Z,98465.22
2018-05-07T18:17:39.241Z,98467.97
2018-05-07T18:20:06.628Z,98466.84
2018-05-07T18:22:34.926Z,98466.70
2018-05-07T18:25:02.328Z,98464.53
2018-05-07T18:27:29.700Z,98462.34
2018-05-07T18:29:57.095Z,98471.17
2018-05-07T18:32:24.527Z,98476.86
2018-05-07T18:34:51.884Z,98468.53
2018-05-07T18:37:19.265Z,98468.41
2018-05-07T18:39:46.665Z,98476.72
2018-05-07T18:42:14.052Z,98469.16
2018-05-07T18:44:41.455Z,98464.89
2018-05-07T18:47:08.836Z,98470.81
2018-05-07T18:49:36.230Z,98473.79
2018-05-07T18:52:03.625Z,98472.44
2018-05-07T18:54:31.007Z,98471.65
2018-05-07T18:56:58.393Z,98475.63
2018-05-07T18:59:25.792Z,98480.64
2018-05-07T19:01:53.174Z,98479.34
2018-05-07T19:04:20.572Z,98483.63
2018-05-07T19:06:47.954Z,98481.64
2018-05-07T19:09:15.917Z,98480.09
2018-05-07T19:11:44.139Z,98478.91
2018-05-07T19:14:11.605Z,98483.58
2018-05-07T19:16:38.937Z,98474.36
2018-05-07T19:19:06.327Z,98479.20
2018-05-07T19:21:33.721Z,98480.77
2018-05-07T19:24:01.110Z,98484.56
2018-05-07T19:26:28.491Z,98478.48
2018-05-07T19:28:55.880Z,98479.62
2018-05-07T19:31:23.268Z,98485.26
2018-05-07T19:33:50.657Z,98484.00
2018-05-07T19:36:18.620Z,98475.63
2018-05-07T19:38:46.014Z,98477.16
2018-05-07T19:41:13.497Z,98476.22
2018-05-07T19:43:40.792Z,98477.44
2018-05-07T19:46:08.724Z,98478.25
2018-05-07T19:48:36.227Z,98478.41
2018-05-07T19:51:03.506Z,98481.99
2018-05-07T19:53:30.896Z,98481.46
2018-05-07T19:55:58.279Z,98480.40
2018-05-07T19:58:25.684Z,98477.70
2018-05-07T20:00:53.067Z,98482.64
2018-05-07T20:03:20.448Z,98478.31
2018-05-07T20:05:47.902Z,98479.23
2018-05-07T20:08:15.231Z,98483.91
2018-05-07T20:10:42.629Z,98481.36
2018-05-07T20:13:10.068Z,98481.02
2018-05-07T20:15:37.443Z,98481.42
2018-05-07T20:18:05.137Z,98478.72
2018-05-07T20:20:32.563Z,98486.58
2018-05-07T20:22:59.954Z,98484.68
2018-05-07T20:25:27.343Z,98486.11
2018-05-07T20:27:54.992Z,98489.34
2018-05-07T20:30:24.838Z,98489.73
2018-05-07T20:32:52.221Z,98485.73
2018-05-07T20:35:19.628Z,98488.70
2018-05-07T20:37:47.434Z,98488.30
2018-05-07T20:40:14.858Z,98487.41
2018-05-07T20:42:42.226Z,98487.70
2018-05-07T20:45:09.677Z,98481.49
2018-05-07T20:47:37.066Z,98474.27
2018-05-07T20:50:04.472Z,98479.34
2018-05-07T20:52:31.889Z,98480.43
2018-05-07T20:54:59.297Z,98480.63
2018-05-07T20:57:27.573Z,98485.71
2018-05-07T20:59:55.772Z,98485.92
2018-05-07T21:02:23.205Z,98476.56
2018-05-07T21:04:50.594Z,98477.39
2018-05-07T21:07:18.265Z,98484.70
2018-05-07T21:09:46.887Z,98485.02
2018-05-07T21:12:14.300Z,98482.47
2018-05-07T21:14:41.687Z,98487.95
2018-05-07T21:17:09.077Z,98480.09
2018-05-07T21:19:36.456Z,98479.19
2018-05-07T21:22:03.852Z,98476.70
2018-05-07T21:24:31.531Z,98469.89
2018-05-07T21:26:58.935Z,98473.62
2018-05-07T21:29:26.311Z,98472.56
2018-05-07T21:31:53.708Z,98471.48
2018-05-07T21:34:21.407Z,98469.47
2018-05-07T21:36:49.084Z,98470.30
2018-05-07T21:39:16.522Z,98464.93
2018-05-07T21:41:43.895Z,98465.52
2018-05-07T21:44:11.285Z,98468.91
2018-05-07T21:46:38.687Z,98466.98
2018-05-07T21:49:06.077Z,98469.68
2018-05-07T21:51:33.479Z,98463.64
2018-05-07T21:54:00.863Z,98459.72
2018-05-07T21:56:28.263Z,98462.26
2018-05-07T21:58:55.656Z,98464.19
2018-05-07T22:02:39.949Z,98468.95
2018-05-07T22:05:07.360Z,98456.25
2018-05-07T22:07:34.752Z,98460.31
2018-05-07T22:10:02.167Z,98460.19
2018-05-07T22:12:29.560Z,98458.70
2018-05-07T22:14:56.960Z,98460.78
2018-05-07T22:17:25.115Z,98460.66
2018-05-07T22:19:52.496Z,98461.64
2018-05-07T22:22:20.484Z,98454.23
2018-05-07T22:24:47.877Z,98453.73
2018-05-07T22:27:15.520Z,98457.55
2018-05-07T22:29:42.912Z,98452.17
2018-05-07T22:32:10.358Z,98461.84
2018-05-07T22:34:37.707Z,98462.28
2018-05-07T22:37:05.911Z,98461.01
2018-05-07T22:39:33.298Z,98457.52
2018-05-07T22:42:00.688Z,98453.55
2018-05-07T22:44:28.064Z,98453.61
2018-05-07T22:46:55.455Z,98457.33
2018-05-07T22:49:22.841Z,98453.23
2018-05-07T22:51:51.155Z,98453.11
2018-05-07T22:54:18.544Z,98453.13
2018-05-07T22:56:45.935Z,98449.48
2018-05-07T22:59:13.317Z,98448.14
2018-05-07T23:01:40.718Z,98449.85
2018-05-07T23:04:08.098Z,98446.17
2018-05-07T23:06:35.490Z,98453.00
2018-05-07T23:09:02.873Z,98455.47
2018-05-07T23:11:30.261Z,98449.18
2018-05-07T23:13:57.656Z,98456.31
2018-05-07T23:16:25.064Z,98444.69
2018-05-07T23:18:52.462Z,98446.43
2018-05-07T23:21:19.845Z,98446.86
2018-05-07T23:23:47.236Z,98446.62
2018-05-07T23:26:14.640Z,98437.48
2018-05-07T23:28:42.023Z,98431.47
2018-05-07T23:31:09.409Z,98438.02
2018-05-07T23:33:36.805Z,98437.38
2018-05-07T23:36:04.241Z,98439.27
2018-05-07T23:38:31.637Z,98430.77
2018-05-07T23:40:59.021Z,98432.24
2018-05-07T23:43:26.422Z,98439.15
2018-05-07T23:45:53.791Z,98435.96
2018-05-07T23:48:21.188Z,98437.08
2018-05-07T23:50:48.581Z,98436.13
2018-05-07T23:53:15.968Z,98431.63
2018-05-07T23:55:43.932Z,98422.41
2018-05-07T23:58:11.325Z,98425.47
